Time;durP1;ratioP1;P1;durP2;ratioP2;P2;SDS_P1;SDS_P2;PMS_P1;PMS_P2;Temp;Humidity;BMP_temperature;BMP_pressure;BME280_temperature;BME280_humidity;BME280_pressure;Samples;Min_cycle;Max_cycle;Signal;HPM_P1;HPM_P2
2022/06/26 00:01:01;;;;;;;3.83;3.43;;;21.20;68.90;;;;;;4882328;29;20509;-81
2022/06/26 00:03:29;;;;;;;10.80;4.43;;;21.20;69.10;;;;;;4874235;29;20431;-81
2022/06/26 00:05:56;;;;;;;5.83;3.13;;;21.20;70.10;;;;;;4870145;29;20496;-78
2022/06/26 00:08:25;;;;;;;3.90;3.20;;;21.10;70.40;;;;;;4876883;29;20549;-81
2022/06/26 00:10:52;;;;;;;4.10;3.70;;;21.10;69.60;;;;;;4865428;29;20477;-80
2022/06/26 00:13:21;;;;;;;3.10;2.90;;;21.00;72.00;;;;;;4867077;29;20546;-80
2022/06/26 00:15:48;;;;;;;3.03;2.83;;;21.00;73.00;;;;;;4873936;29;20464;-81
2022/06/26 00:18:15;;;;;;;5.03;3.33;;;20.90;74.90;;;;;;4873721;29;20508;-80
2022/06/26 00:20:42;;;;;;;3.90;3.37;;;20.80;76.10;;;;;;4876676;29;20447;-81
2022/06/26 00:23:09;;;;;;;2.97;2.70;;;20.70;77.40;;;;;;4873410;29;20489;-81
2022/06/26 00:25:36;;;;;;;8.43;2.37;;;20.60;78.80;;;;;;4877019;29;20464;-85
2022/06/26 00:28:04;;;;;;;3.37;2.37;;;20.50;78.40;;;;;;4883613;29;20485;-82
2022/06/26 00:30:32;;;;;;;2.30;2.10;;;20.40;77.10;;;;;;4873732;29;20802;-80
2022/06/26 00:32:59;;;;;;;2.30;2.20;;;20.40;75.20;;;;;;4873149;29;20548;-83
2022/06/26 00:35:26;;;;;;;2.13;1.93;;;20.40;73.50;;;;;;4873597;29;20444;-81
2022/06/26 00:37:53;;;;;;;2.50;1.70;;;20.40;74.10;;;;;;4880408;29;20457;-79
2022/06/26 00:40:20;;;;;;;1.60;1.50;;;20.40;73.00;;;;;;4886356;29;20436;-78
2022/06/26 00:42:47;;;;;;;1.57;1.30;;;20.40;69.20;;;;;;4885572;29;20417;-80
2022/06/26 00:45:14;;;;;;;1.40;1.30;;;20.40;68.20;;;;;;4886445;29;20453;-77
2022/06/26 00:47:43;;;;;;;2.90;1.50;;;20.40;68.80;;;;;;4886534;29;20456;-80
2022/06/26 00:50:11;;;;;;;5.80;1.60;;;20.40;66.40;;;;;;4886478;29;20503;-78
2022/06/26 00:52:39;;;;;;;3.17;1.40;;;20.40;65.90;;;;;;4876691;29;20477;-81
2022/06/26 00:55:07;;;;;;;6.63;1.40;;;20.30;65.90;;;;;;4874164;29;20831;-83
2022/06/26 00:57:36;;;;;;;2.40;1.30;;;20.30;67.40;;;;;;4872595;29;20487;-83
2022/06/26 01:00:04;;;;;;;1.60;1.50;;;20.30;68.10;;;;;;4870986;29;20438;-83
2022/06/26 01:02:31;;;;;;;1.70;1.57;;;20.20;68.30;;;;;;4874205;29;20492;-80
2022/06/26 01:05:00;;;;;;;1.37;1.37;;;20.20;69.80;;;;;;4873192;29;20488;-83
2022/06/26 01:07:27;;;;;;;2.33;1.73;;;20.20;69.70;;;;;;4874031;29;20525;-83
2022/06/26 01:09:54;;;;;;;4.30;2.00;;;20.20;69.80;;;;;;4873131;29;20513;-82
2022/06/26 01:12:22;;;;;;;1.50;1.30;;;20.20;70.80;;;;;;4878731;29;20458;-81
2022/06/26 01:14:50;;;;;;;2.47;1.30;;;20.10;71.30;;;;;;4881959;29;20515;-83
2022/06/26 01:17:17;;;;;;;2.07;1.87;;;20.00;71.90;;;;;;4876227;23;1341842;-78
2022/06/26 01:19:45;;;;;;;1.57;1.37;;;20.00;72.80;;;;;;4871037;29;20300;-81
2022/06/26 01:22:13;;;;;;;1.57;1.47;;;19.90;73.90;;;;;;4866271;29;20469;-79
2022/06/26 01:24:42;;;;;;;1.97;1.77;;;19.90;74.70;;;;;;4866749;29;20421;-79
2022/06/26 01:27:09;;;;;;;1.37;1.27;;;19.90;75.10;;;;;;4877485;29;20452;-79
2022/06/26 01:29:36;;;;;;;1.40;1.30;;;19.80;76.10;;;;;;4870561;29;20502;-79
2022/06/26 01:32:03;;;;;;;1.63;1.53;;;19.70;76.40;;;;;;4865154;29;20432;-78
2022/06/26 01:34:29;;;;;;;2.23;1.60;;;19.70;76.90;;;;;;4863541;29;20469;-80
2022/06/26 01:36:56;;;;;;;1.90;1.80;;;19.60;77.60;;;;;;4863643;29;20550;-79
2022/06/26 01:39:23;;;;;;;1.60;1.50;;;19.70;78.20;;;;;;4862971;29;20458;-79
2022/06/26 01:41:51;;;;;;;1.60;1.50;;;19.70;77.50;;;;;;4863385;29;20504;-79
2022/06/26 01:44:18;;;;;;;3.00;1.77;;;19.70;77.10;;;;;;4873218;29;20469;-79
2022/06/26 01:46:45;;;;;;;1.47;1.30;;;19.60;76.40;;;;;;4883493;29;20569;-79
2022/06/26 01:49:12;;;;;;;4.97;1.90;;;19.60;76.30;;;;;;4868797;29;20561;-79
2022/06/26 01:51:39;;;;;;;3.70;1.50;;;19.60;76.40;;;;;;4865947;29;20567;-79
2022/06/26 01:54:06;;;;;;;2.07;1.43;;;19.50;76.20;;;;;;4866348;29;20458;-79
2022/06/26 01:56:32;;;;;;;2.30;1.20;;;19.50;76.30;;;;;;4869318;29;20466;-78
2022/06/26 01:59:01;;;;;;;1.77;1.60;;;19.50;76.90;;;;;;4876076;29;20896;-80
2022/06/26 02:01:28;;;;;;;1.27;1.17;;;19.50;76.20;;;;;;4876927;29;20484;-79
2022/06/26 02:03:54;;;;;;;2.30;1.40;;;19.50;75.20;;;;;;4878444;29;20447;-79
2022/06/26 02:06:21;;;;;;;3.47;1.60;;;19.40;76.10;;;;;;4878388;29;20462;-80
2022/06/26 02:08:48;;;;;;;1.30;1.07;;;19.50;74.80;;;;;;4870429;29;21023;-80
2022/06/26 02:14:01;;;;;;;1.33;1.23;;;19.40;74.10;;;;;;4878013;29;20586;-79
2022/06/26 02:16:28;;;;;;;1.20;1.20;;;19.40;73.50;;;;;;4868809;29;20492;-80
2022/06/26 02:18:58;;;;;;;1.47;1.10;;;19.50;73.00;;;;;;4879230;29;20466;-80
2022/06/26 02:21:28;;;;;;;1.03;1.00;;;19.50;71.80;;;;;;4871247;29;20474;-79
2022/06/26 02:23:56;;;;;;;1.30;1.20;;;19.50;71.90;;;;;;4865426;29;20542;-79
2022/06/26 02:26:23;;;;;;;1.20;1.10;;;19.50;72.30;;;;;;4866574;29;20469;-79
2022/06/26 02:28:51;;;;;;;1.17;1.17;;;19.50;71.80;;;;;;4862917;29;20468;-78
2022/06/26 02:31:19;;;;;;;2.13;1.20;;;19.60;71.50;;;;;;4865261;29;20526;-80
2022/06/26 02:33:46;;;;;;;1.73;1.40;;;19.50;71.00;;;;;;4867442;29;20447;-79
2022/06/26 02:36:13;;;;;;;1.30;1.20;;;19.50;70.20;;;;;;4863227;29;20472;-79
2022/06/26 02:38:41;;;;;;;1.40;1.30;;;19.50;69.90;;;;;;4862388;29;20487;-79
2022/06/26 02:41:07;;;;;;;3.73;1.70;;;19.60;68.10;;;;;;4863784;29;20973;-79
2022/06/26 02:43:35;;;;;;;1.00;1.00;;;19.60;67.40;;;;;;4866435;29;20533;-79
2022/06/26 02:46:02;;;;;;;1.63;1.27;;;19.70;67.50;;;;;;4880154;29;20437;-80
2022/06/26 02:48:31;;;;;;;2.27;1.27;;;19.70;67.50;;;;;;4881546;29;20514;-79
2022/06/26 02:50:57;;;;;;;1.23;1.20;;;19.70;67.50;;;;;;4880114;29;20514;-79
2022/06/26 02:53:24;;;;;;;1.93;1.40;;;19.70;66.90;;;;;;4874591;29;20517;-79
2022/06/26 02:55:51;;;;;;;1.07;1.07;;;19.70;66.10;;;;;;4863134;29;20432;-79
2022/06/26 02:58:18;;;;;;;1.20;1.20;;;19.70;66.10;;;;;;4861336;29;20482;-79
2022/06/26 03:00:46;;;;;;;1.00;1.00;;;19.70;65.70;;;;;;4861794;29;20433;-79
2022/06/26 03:03:13;;;;;;;1.10;1.00;;;19.60;65.40;;;;;;4861738;29;20455;-79
2022/06/26 03:05:41;;;;;;;1.27;1.10;;;19.50;65.80;;;;;;4865318;29;20456;-80
2022/06/26 03:08:08;;;;;;;1.10;1.10;;;19.50;65.80;;;;;;4867516;29;20489;-79
2022/06/26 03:10:36;;;;;;;1.43;1.33;;;19.40;66.20;;;;;;4875261;29;20513;-79
2022/06/26 03:13:03;;;;;;;2.03;1.30;;;19.30;67.10;;;;;;4869991;29;20468;-79
2022/06/26 03:15:30;;;;;;;2.43;1.30;;;19.30;67.10;;;;;;4867780;29;20498;-79
2022/06/26 03:17:57;;;;;;;1.67;1.57;;;19.20;67.10;;;;;;4868101;29;21005;-79
2022/06/26 03:20:24;;;;;;;2.70;1.70;;;19.10;67.00;;;;;;4871077;29;20448;-79
2022/06/26 03:22:53;;;;;;;1.30;1.30;;;19.10;67.00;;;;;;4874961;29;20497;-80
2022/06/26 03:25:20;;;;;;;1.33;1.23;;;19.00;67.80;;;;;;4872042;29;20496;-80
2022/06/26 03:27:46;;;;;;;1.67;1.57;;;19.00;68.90;;;;;;4868708;29;21074;-80
2022/06/26 03:30:14;;;;;;;3.30;1.60;;;19.00;68.50;;;;;;4867644;29;20576;-80
2022/06/26 03:32:41;;;;;;;1.40;1.30;;;19.00;68.70;;;;;;4872813;29;20474;-80
2022/06/26 03:35:10;;;;;;;2.30;1.33;;;19.00;68.80;;;;;;4873010;29;20443;-80
2022/06/26 03:37:37;;;;;;;2.17;1.50;;;19.00;69.60;;;;;;4867783;29;21044;-79
2022/06/26 03:40:06;;;;;;;1.70;1.60;;;18.90;70.40;;;;;;4864683;29;21037;-80
2022/06/26 03:42:33;;;;;;;1.80;1.37;;;18.90;70.90;;;;;;4869767;29;20453;-80
2022/06/26 03:45:00;;;;;;;1.70;1.60;;;18.90;71.40;;;;;;4878239;29;20472;-79
2022/06/26 03:47:27;;;;;;;2.93;1.67;;;19.00;71.30;;;;;;4879806;29;20466;-79
2022/06/26 03:49:54;;;;;;;1.90;1.80;;;18.90;71.80;;;;;;4883116;29;20482;-80
2022/06/26 03:52:22;;;;;;;2.00;1.40;;;18.90;72.10;;;;;;4880762;29;20489;-79
2022/06/26 03:54:49;;;;;;;1.70;1.60;;;18.90;72.10;;;;;;4871831;29;20441;-79
2022/06/26 03:57:17;;;;;;;2.83;1.60;;;18.90;73.80;;;;;;4878564;29;20485;-79
2022/06/26 03:59:44;;;;;;;2.80;1.60;;;18.90;74.20;;;;;;4872871;29;20489;-79
2022/06/26 04:02:11;;;;;;;1.57;1.47;;;18.80;75.30;;;;;;4871524;29;20824;-79
2022/06/26 04:04:39;;;;;;;2.37;1.93;;;18.90;75.70;;;;;;4876624;29;20503;-79
2022/06/26 04:07:06;;;;;;;1.43;1.33;;;18.90;75.70;;;;;;4883558;29;20449;-79
2022/06/26 04:09:33;;;;;;;2.33;1.33;;;18.90;75.70;;;;;;4883775;29;20525;-79
2022/06/26 04:11:59;;;;;;;1.93;1.40;;;19.00;75.80;;;;;;4882578;29;20492;-80
2022/06/26 04:14:28;;;;;;;1.63;1.53;;;19.00;75.80;;;;;;4878417;29;20436;-80
2022/06/26 04:16:55;;;;;;;1.60;1.50;;;19.00;75.80;;;;;;4873446;29;20524;-80
2022/06/26 04:19:22;;;;;;;1.40;1.30;;;19.10;75.90;;;;;;4877123;29;20440;-81
2022/06/26 04:21:49;;;;;;;1.70;1.30;;;19.10;75.90;;;;;;4884664;29;20458;-80
2022/06/26 04:24:16;;;;;;;2.10;1.60;;;19.10;75.90;;;;;;4869541;29;20432;-80
2022/06/26 04:26:43;;;;;;;2.90;1.80;;;19.10;75.90;;;;;;4872183;29;20530;-79
2022/06/26 04:29:10;;;;;;;2.17;1.60;;;19.20;76.00;;;;;;4881423;29;21017;-80
2022/06/26 04:31:38;;;;;;;1.77;1.67;;;19.30;76.00;;;;;;4877313;29;20494;-80
2022/06/26 04:34:05;;;;;;;2.43;1.80;;;19.30;76.00;;;;;;4883564;29;20413;-81
2022/06/26 04:36:32;;;;;;;1.80;1.70;;;19.40;76.80;;;;;;4883515;29;20420;-80
2022/06/26 04:38:59;;;;;;;1.87;1.77;;;19.40;76.80;;;;;;4883485;29;20457;-80
2022/06/26 04:41:39;;;;;;;2.23;2.13;;;19.40;77.40;;;;;;4885632;29;20465;-80
2022/06/26 04:44:07;;;;;;;1.90;1.60;;;19.40;77.80;;;;;;4884599;29;20441;-80
2022/06/26 04:46:35;;;;;;;1.77;1.67;;;19.40;77.30;;;;;;4875929;29;20467;-80
2022/06/26 04:49:04;;;;;;;2.23;1.83;;;19.50;76.30;;;;;;4872113;29;20500;-80
2022/06/26 04:51:34;;;;;;;2.17;1.90;;;19.50;76.30;;;;;;4870113;29;20521;-80
2022/06/26 04:54:01;;;;;;;1.80;1.70;;;19.60;76.40;;;;;;4868357;29;20982;-80
2022/06/26 04:56:28;;;;;;;2.00;1.90;;;19.90;75.30;;;;;;4867435;29;20480;-80
2022/06/26 04:58:56;;;;;;;3.60;1.83;;;20.40;72.10;;;;;;4868295;29;20490;-79
2022/06/26 05:01:23;;;;;;;4.33;1.30;;;21.10;68.80;;;;;;4868802;29;20436;-80
2022/06/26 05:03:50;;;;;;;3.40;1.87;;;22.10;61.30;;;;;;4867227;29;20468;-80
2022/06/26 05:06:19;;;;;;;1.70;1.60;;;22.90;56.70;;;;;;4868139;29;20458;-80
2022/06/26 05:08:46;;;;;;;1.40;1.30;;;23.80;53.10;;;;;;4870062;29;20636;-80
2022/06/26 05:11:13;;;;;;;2.57;1.87;;;24.50;49.50;;;;;;4871466;29;20576;-80
2022/06/26 05:13:40;;;;;;;1.60;1.47;;;25.00;47.10;;;;;;4874269;29;20474;-80
2022/06/26 05:16:07;;;;;;;2.73;1.40;;;25.30;45.50;;;;;;4876479;29;20536;-79
2022/06/26 05:18:34;;;;;;;1.80;1.37;;;25.30;45.00;;;;;;4874812;29;20460;-80
2022/06/26 05:21:01;;;;;;;1.33;1.23;;;25.50;43.80;;;;;;4877507;29;20424;-80
2022/06/26 05:23:29;;;;;;;1.73;1.37;;;26.00;44.20;;;;;;4883846;29;20480;-80
2022/06/26 05:25:56;;;;;;;1.30;1.20;;;26.50;41.70;;;;;;4877943;29;20466;-79
2022/06/26 05:28:23;;;;;;;1.70;1.20;;;26.80;40.50;;;;;;4868972;29;20529;-80
2022/06/26 05:30:50;;;;;;;3.00;1.40;;;26.30;39.70;;;;;;4869321;29;20461;-80
2022/06/26 05:33:17;;;;;;;1.40;1.30;;;25.70;41.60;;;;;;4868394;29;20470;-79
2022/06/26 05:35:44;;;;;;;4.30;1.87;;;25.30;43.70;;;;;;4868960;29;20805;-80
2022/06/26 05:38:11;;;;;;;1.77;1.30;;;25.20;44.40;;;;;;4869128;29;20511;-80
2022/06/26 05:40:39;;;;;;;1.80;1.00;;;25.70;41.70;;;;;;4869088;29;20521;-80
2022/06/26 05:43:06;;;;;;;1.20;1.00;;;25.90;40.90;;;;;;4873226;29;20459;-80
2022/06/26 05:45:33;;;;;;;1.00;1.00;;;26.30;40.50;;;;;;4880320;29;20427;-81
2022/06/26 05:48:00;;;;;;;3.37;1.23;;;27.00;38.70;;;;;;4876146;29;20523;-80
2022/06/26 05:50:27;;;;;;;1.47;0.90;;;27.00;37.80;;;;;;4871460;29;20469;-80
2022/06/26 05:52:54;;;;;;;1.70;1.17;;;26.80;37.90;;;;;;4875304;29;20480;-79
2022/06/26 05:55:20;;;;;;;1.53;0.90;;;26.50;38.90;;;;;;4880343;29;20595;-80
2022/06/26 05:57:49;;;;;;;3.00;1.20;;;26.60;38.90;;;;;;4882077;29;20503;-81
2022/06/26 06:00:16;;;;;;;1.10;1.10;;;27.10;38.00;;;;;;4885540;29;20472;-80
2022/06/26 06:02:43;;;;;;;1.63;1.37;;;27.60;36.30;;;;;;4885098;29;20472;-80
2022/06/26 06:05:10;;;;;;;1.10;1.00;;;27.70;35.80;;;;;;4883759;29;20428;-80
2022/06/26 06:07:37;;;;;;;0.93;0.93;;;27.80;35.10;;;;;;4883061;29;20470;-79
2022/06/26 06:10:06;;;;;;;1.20;1.10;;;27.20;35.70;;;;;;4883541;29;20515;-80
2022/06/26 06:12:33;;;;;;;1.27;1.10;;;26.80;37.20;;;;;;4884321;29;20529;-80
2022/06/26 06:15:02;;;;;;;1.13;1.03;;;26.60;37.50;;;;;;4878763;29;20507;-81
2022/06/26 06:17:40;;;;;;;1.20;1.10;;;26.00;39.40;;;;;;4875267;29;20874;-80
2022/06/26 06:20:09;;;;;;;1.30;1.20;;;26.10;39.50;;;;;;4876071;29;20514;-80
2022/06/26 06:22:37;;;;;;;2.57;1.27;;;26.20;39.00;;;;;;4878546;29;20982;-80
2022/06/26 06:25:04;;;;;;;1.23;1.10;;;26.20;38.80;;;;;;4879217;29;20439;-79
2022/06/26 06:27:31;;;;;;;1.03;0.93;;;26.40;39.00;;;;;;4879379;29;20456;-79
2022/06/26 06:29:58;;;;;;;3.60;1.07;;;26.80;37.70;;;;;;4883176;29;20472;-82
2022/06/26 06:32:26;;;;;;;1.53;1.37;;;27.10;36.40;;;;;;4884878;29;20476;-82
2022/06/26 06:34:53;;;;;;;2.93;1.00;;;27.30;36.10;;;;;;4885095;29;20448;-81
2022/06/26 06:37:20;;;;;;;1.17;1.13;;;27.60;35.10;;;;;;4884857;29;20452;-78
2022/06/26 06:39:47;;;;;;;1.20;1.10;;;27.90;35.20;;;;;;4882605;29;20473;-81
2022/06/26 06:42:14;;;;;;;1.23;1.13;;;27.90;35.20;;;;;;4876031;29;20453;-81
2022/06/26 06:44:41;;;;;;;1.00;1.00;;;27.90;35.20;;;;;;4876587;29;20520;-81
2022/06/26 06:47:08;;;;;;;1.10;1.00;;;28.10;35.30;;;;;;4879108;29;20487;-80
2022/06/26 06:49:36;;;;;;;1.13;1.10;;;28.50;34.60;;;;;;4878713;29;20501;-80
2022/06/26 06:52:07;;;;;;;1.60;1.00;;;28.50;34.40;;;;;;4878041;29;20517;-81
2022/06/26 06:54:34;;;;;;;4.63;1.33;;;28.30;34.50;;;;;;4876395;29;20497;-81
2022/06/26 06:57:01;;;;;;;1.17;1.07;;;28.00;35.30;;;;;;4877971;29;20470;-80
2022/06/26 06:59:29;;;;;;;1.23;1.13;;;27.60;35.00;;;;;;4877155;29;20486;-80
2022/06/26 07:01:56;;;;;;;1.80;1.43;;;27.80;35.10;;;;;;4876483;29;20457;-81
2022/06/26 07:04:23;;;;;;;1.33;1.23;;;28.00;35.30;;;;;;4873883;29;20628;-81
2022/06/26 07:06:51;;;;;;;1.57;1.47;;;27.70;35.80;;;;;;4869037;29;20480;-80
2022/06/26 07:09:18;;;;;;;2.40;1.33;;;27.00;36.30;;;;;;4872187;29;20447;-79
2022/06/26 07:11:45;;;;;;;1.47;1.40;;;26.00;38.80;;;;;;4872331;29;20492;-79
2022/06/26 07:14:12;;;;;;;1.50;1.40;;;25.00;41.20;;;;;;4871757;29;20525;-80
2022/06/26 07:16:39;;;;;;;1.40;1.30;;;24.50;43.00;;;;;;4875365;29;20452;-80
2022/06/26 07:19:06;;;;;;;1.33;1.23;;;24.30;42.80;;;;;;4886047;23;20498;-78
2022/06/26 07:21:33;;;;;;;1.67;1.57;;;24.30;42.80;;;;;;4864100;29;20461;-79
2022/06/26 07:24:03;;;;;;;1.30;1.20;;;24.20;43.30;;;;;;4866754;29;20540;-79
2022/06/26 07:26:30;;;;;;;2.10;1.43;;;23.90;44.20;;;;;;4864380;29;20445;-79
2022/06/26 07:28:57;;;;;;;1.37;1.30;;;23.70;44.50;;;;;;4864605;29;20764;-79
2022/06/26 07:31:24;;;;;;;2.10;1.63;;;23.60;45.70;;;;;;4862252;29;20452;-78
2022/06/26 07:36:35;;;;;;;3.87;1.50;;;23.50;46.60;;;;;;4875003;29;20411;-77
2022/06/26 07:39:04;;;;;;;1.43;1.30;;;23.60;46.40;;;;;;4879480;29;20481;-82
2022/06/26 07:41:31;;;;;;;4.20;1.90;;;23.60;46.80;;;;;;4878982;29;20538;-79
2022/06/26 07:43:58;;;;;;;1.70;1.60;;;23.80;46.80;;;;;;4870618;29;20442;-80
2022/06/26 07:46:25;;;;;;;5.43;2.40;;;23.80;45.60;;;;;;4864672;29;20466;-79
2022/06/26 07:48:52;;;;;;;1.50;1.40;;;23.80;45.10;;;;;;4863804;29;20938;-79
2022/06/26 07:51:19;;;;;;;1.53;1.40;;;23.80;44.80;;;;;;4868842;29;20489;-82
2022/06/26 07:53:46;;;;;;;2.70;1.83;;;23.50;45.10;;;;;;4866291;29;20526;-81
2022/06/26 07:56:14;;;;;;;1.80;1.30;;;23.20;46.00;;;;;;4867210;29;20441;-80
2022/06/26 07:58:42;;;;;;;1.50;1.40;;;23.30;46.10;;;;;;4865541;29;21222;-79
2022/06/26 08:01:09;;;;;;;1.50;1.40;;;23.40;45.80;;;;;;4863479;29;20437;-78
2022/06/26 08:03:36;;;;;;;2.30;1.30;;;23.50;45.80;;;;;;4865487;29;20466;-79
2022/06/26 08:06:04;;;;;;;1.37;1.30;;;23.60;45.10;;;;;;4866396;29;20503;-80
2022/06/26 08:08:32;;;;;;;1.70;1.60;;;23.40;44.80;;;;;;4866766;29;20477;-79
2022/06/26 08:10:59;;;;;;;3.10;1.33;;;23.40;45.40;;;;;;4868904;29;20465;-79
2022/06/26 08:13:29;;;;;;;2.20;1.43;;;23.20;45.10;;;;;;4867054;29;20547;-80
2022/06/26 08:15:56;;;;;;;2.53;1.60;;;23.10;45.60;;;;;;4868306;29;20474;-79
2022/06/26 08:18:23;;;;;;;1.20;1.20;;;23.30;45.50;;;;;;4870785;29;20448;-81
2022/06/26 08:20:50;;;;;;;3.77;1.80;;;23.60;45.30;;;;;;4868608;29;20458;-79
2022/06/26 08:23:17;;;;;;;2.50;1.60;;;23.80;45.30;;;;;;4876824;29;20477;-79
2022/06/26 08:25:45;;;;;;;4.13;1.60;;;23.80;45.30;;;;;;4882935;29;20448;-81
2022/06/26 08:28:12;;;;;;;1.60;1.30;;;23.80;45.30;;;;;;4882743;29;20509;-81
2022/06/26 08:30:41;;;;;;;1.93;1.50;;;23.80;45.10;;;;;;4882917;29;20436;-82
2022/06/26 08:33:08;;;;;;;1.53;1.43;;;23.90;44.70;;;;;;4882931;29;20471;-83
2022/06/26 08:35:34;;;;;;;1.63;1.43;;;24.00;44.40;;;;;;4886480;29;20424;-82
2022/06/26 08:38:01;;;;;;;2.27;1.50;;;24.00;44.90;;;;;;4886105;29;20485;-81
2022/06/26 08:40:29;;;;;;;1.60;1.50;;;24.00;43.90;;;;;;4886276;29;20462;-82
2022/06/26 08:42:56;;;;;;;1.70;1.60;;;23.70;45.30;;;;;;4886552;29;20450;-82
2022/06/26 08:45:23;;;;;;;1.73;1.60;;;23.80;44.20;;;;;;4886388;29;20476;-84
2022/06/26 08:47:53;;;;;;;1.60;1.50;;;24.20;44.10;;;;;;4886673;29;20462;-82
2022/06/26 08:50:22;;;;;;;1.83;1.70;;;24.50;43.70;;;;;;4886126;29;20438;-82
2022/06/26 08:52:51;;;;;;;2.07;1.70;;;24.80;43.30;;;;;;4883274;29;20456;-80
2022/06/26 08:55:19;;;;;;;1.63;1.47;;;25.10;41.80;;;;;;4881811;29;20492;-80
2022/06/26 08:57:47;;;;;;;6.93;1.70;;;24.90;41.80;;;;;;4881923;29;20486;-81
2022/06/26 09:00:15;;;;;;;1.80;1.70;;;24.40;42.90;;;;;;4878025;29;20512;-80
2022/06/26 09:02:43;;;;;;;1.50;1.40;;;24.50;43.00;;;;;;4880547;29;20437;-81
2022/06/26 09:05:12;;;;;;;1.53;1.40;;;24.70;42.50;;;;;;4880328;29;20487;-81
2022/06/26 09:07:49;;;;;;;1.70;1.60;;;24.60;41.90;;;;;;4883992;29;20528;-82
2022/06/26 09:10:19;;;;;;;1.60;1.50;;;24.80;43.30;;;;;;4885695;29;20433;-80
2022/06/26 09:12:51;;;;;;;1.83;1.53;;;25.00;42.20;;;;;;4885385;29;20526;-82
2022/06/26 09:15:20;;;;;;;2.47;2.00;;;25.20;41.50;;;;;;4884487;29;20544;-81
2022/06/26 09:18:06;;;;;;;1.30;1.30;;;25.70;40.70;;;;;;4879313;29;20480;-81
2022/06/26 09:20:37;;;;;;;1.50;1.40;;;26.20;38.90;;;;;;4881817;29;20426;-79
2022/06/26 09:23:05;;;;;;;1.50;1.40;;;26.50;37.50;;;;;;4885825;29;20436;-78
2022/06/26 09:25:36;;;;;;;1.47;1.37;;;26.20;38.30;;;;;;4885222;29;20444;-80
2022/06/26 09:28:12;;;;;;;1.50;1.40;;;26.30;37.60;;;;;;4884995;29;20474;-81
2022/06/26 09:30:50;;;;;;;1.33;1.33;;;26.30;37.30;;;;;;4884438;29;20449;-78
2022/06/26 09:33:18;;;;;;;1.70;1.60;;;26.50;36.20;;;;;;4884626;29;20467;-81
2022/06/26 09:35:46;;;;;;;2.67;1.20;;;26.60;37.00;;;;;;4883783;29;20503;-79
2022/06/26 09:38:18;;;;;;;1.33;1.23;;;27.00;34.50;;;;;;4879089;29;20521;-81
2022/06/26 09:40:50;;;;;;;4.17;1.50;;;27.40;35.30;;;;;;4870504;29;20864;-82
2022/06/26 09:43:28;;;;;;;1.20;1.20;;;27.60;34.60;;;;;;4870551;29;21053;-81
2022/06/26 09:45:56;;;;;;;1.20;1.20;;;27.20;34.70;;;;;;4868377;29;20992;-82
2022/06/26 09:48:24;;;;;;;1.60;1.43;;;27.50;33.90;;;;;;4870477;29;20464;-82
2022/06/26 09:50:56;;;;;;;1.50;1.40;;;27.30;34.70;;;;;;4871296;29;20958;-83
2022/06/26 09:53:25;;;;;;;2.83;1.50;;;27.30;34.70;;;;;;4870732;29;20528;-83
2022/06/26 09:55:55;;;;;;;2.57;1.90;;;27.60;34.20;;;;;;4870389;29;20436;-82
2022/06/26 09:58:23;;;;;;;1.87;1.77;;;27.40;34.80;;;;;;4869941;29;20798;-83
2022/06/26 10:06:26;;;;;;;2.43;1.40;;;26.80;35.90;;;;;;4869600;29;20439;-80
2022/06/26 10:08:54;;;;;;;1.63;1.53;;;27.20;34.70;;;;;;4872304;29;20517;-80
2022/06/26 10:11:23;;;;;;;3.03;1.47;;;27.20;34.70;;;;;;4873450;29;20594;-81
2022/06/26 10:13:51;;;;;;;2.63;1.50;;;27.30;34.70;;;;;;4869625;29;20481;-79
2022/06/26 10:16:45;;;;;;;1.60;1.50;;;27.30;34.70;;;;;;4871732;29;20535;-80
2022/06/26 10:19:24;;;;;;;1.50;1.40;;;27.10;34.80;;;;;;4872340;29;20489;-80
2022/06/26 10:21:53;;;;;;;1.50;1.40;;;27.10;35.30;;;;;;4871037;29;20447;-80
2022/06/26 10:24:20;;;;;;;1.40;1.30;;;27.20;34.70;;;;;;4871957;29;20929;-81
2022/06/26 10:26:55;;;;;;;1.57;1.40;;;27.60;35.00;;;;;;4875264;29;20424;-79
2022/06/26 10:29:33;;;;;;;1.53;1.43;;;27.50;34.90;;;;;;4879826;29;20430;-80
2022/06/26 10:32:00;;;;;;;1.77;1.53;;;27.70;35.80;;;;;;4878628;29;20479;-81
2022/06/26 10:34:27;;;;;;;1.70;1.60;;;27.70;34.40;;;;;;4881098;29;20429;-80
2022/06/26 10:37:01;;;;;;;3.23;2.27;;;27.60;35.00;;;;;;4879293;29;20514;-79
2022/06/26 10:39:45;;;;;;;2.10;1.70;;;27.40;34.80;;;;;;4879921;29;20443;-82
2022/06/26 10:45:06;;;;;;;1.80;1.50;;;27.70;34.70;;;;;;4881157;29;20428;-79
2022/06/26 10:47:48;;;;;;;1.70;1.60;;;27.80;33.60;;;;;;4878525;29;20456;-78
2022/06/26 10:50:33;;;;;;;5.60;1.57;;;27.20;34.70;;;;;;4880852;29;20441;-79
2022/06/26 10:53:16;;;;;;;2.30;1.47;;;27.00;34.50;;;;;;4880052;29;20481;-81
2022/06/26 10:55:45;;;;;;;2.33;1.40;;;27.40;34.00;;;;;;4881983;29;20456;-81
2022/06/26 10:58:20;;;;;;;3.63;1.40;;;26.60;35.40;;;;;;4881731;29;20545;-81
2022/06/26 11:00:47;;;;;;;1.67;1.50;;;27.20;34.70;;;;;;4869572;29;20810;-80
2022/06/26 11:03:15;;;;;;;1.60;1.50;;;27.80;33.00;;;;;;4866871;29;20507;-80
2022/06/26 11:05:54;;;;;;;1.60;1.50;;;28.40;31.70;;;;;;4874437;29;20468;-80
2022/06/26 11:08:30;;;;;;;1.30;1.30;;;28.80;30.00;;;;;;4870167;29;20461;-78
2022/06/26 11:11:01;;;;;;;1.30;1.20;;;28.40;30.50;;;;;;4869203;29;20729;-80
2022/06/26 11:13:27;;;;;;;1.20;1.20;;;28.10;31.10;;;;;;4872176;29;20497;-81
2022/06/26 11:15:54;;;;;;;1.13;1.10;;;27.60;32.30;;;;;;4868059;29;20545;-82
2022/06/26 11:18:21;;;;;;;2.00;1.40;;;27.90;32.40;;;;;;4867368;29;20517;-80
2022/06/26 11:20:51;;;;;;;2.90;1.40;;;28.60;30.30;;;;;;4866965;29;21030;-80
2022/06/26 11:23:21;;;;;;;1.60;1.50;;;28.60;31.10;;;;;;4868701;29;20987;-80
2022/06/26 11:25:53;;;;;;;1.43;1.33;;;28.90;30.60;;;;;;4867338;29;20466;-79
2022/06/26 11:28:20;;;;;;;1.30;1.20;;;29.00;30.70;;;;;;4868444;29;20541;-80
2022/06/26 11:30:48;;;;;;;1.70;1.60;;;28.70;30.40;;;;;;4870765;29;20433;-80
2022/06/26 11:33:24;;;;;;;1.60;1.50;;;28.70;30.70;;;;;;4879067;29;20499;-79
2022/06/26 11:35:52;;;;;;;1.53;1.43;;;28.80;30.60;;;;;;4875196;29;20474;-80
2022/06/26 11:38:19;;;;;;;1.40;1.30;;;28.60;30.40;;;;;;4876538;29;20512;-82
2022/06/26 11:40:50;;;;;;;1.10;1.10;;;28.70;30.90;;;;;;4875077;29;20529;-80
2022/06/26 11:43:19;;;;;;;2.30;1.60;;;28.90;30.90;;;;;;4874803;29;20472;-80
2022/06/26 11:45:47;;;;;;;1.40;1.40;;;28.90;30.00;;;;;;4875656;29;20539;-81
2022/06/26 11:48:17;;;;;;;1.60;1.50;;;28.90;30.60;;;;;;4876527;29;20508;-82
2022/06/26 11:50:45;;;;;;;1.67;1.57;;;28.20;32.20;;;;;;4873746;29;20467;-82
2022/06/26 11:53:19;;;;;;;3.10;1.57;;;28.50;31.30;;;;;;4874808;29;20471;-80
2022/06/26 11:55:48;;;;;;;1.60;1.50;;;28.50;31.30;;;;;;4873397;29;20526;-80
2022/06/26 11:58:17;;;;;;;2.17;1.93;;;28.70;30.50;;;;;;4873344;29;20487;-79
2022/06/26 12:00:45;;;;;;;1.47;1.37;;;28.80;30.60;;;;;;4872026;29;20442;-79
2022/06/26 12:03:14;;;;;;;1.83;1.73;;;28.70;31.10;;;;;;4869494;29;20480;-80
2022/06/26 12:05:42;;;;;;;4.77;2.10;;;29.10;30.40;;;;;;4870715;29;20438;-79
2022/06/26 12:08:17;;;;;;;2.07;1.97;;;29.50;29.60;;;;;;4869320;29;20490;-81
2022/06/26 12:10:50;;;;;;;1.97;1.87;;;29.40;29.60;;;;;;4871087;29;20443;-81
2022/06/26 12:13:26;;;;;;;2.93;1.70;;;28.90;30.60;;;;;;4874340;29;20478;-82
2022/06/26 12:15:54;;;;;;;1.70;1.60;;;28.90;30.00;;;;;;4878604;29;20466;-80
2022/06/26 12:18:21;;;;;;;2.37;1.60;;;28.90;30.30;;;;;;4871002;29;20496;-81
2022/06/26 12:20:52;;;;;;;1.70;1.60;;;29.10;29.50;;;;;;4876734;29;20466;-79
2022/06/26 12:23:19;;;;;;;1.63;1.53;;;29.30;28.80;;;;;;4874737;29;20463;-81
2022/06/26 12:25:49;;;;;;;1.60;1.40;;;27.80;32.00;;;;;;4870723;29;20440;-80
2022/06/26 12:28:24;;;;;;;1.63;1.53;;;28.50;30.90;;;;;;4873139;29;20487;-80
2022/06/26 12:30:51;;;;;;;1.70;1.60;;;29.20;29.50;;;;;;4875844;29;20551;-82
2022/06/26 12:33:19;;;;;;;2.50;1.70;;;29.70;28.70;;;;;;4875191;29;20500;-82
2022/06/26 12:35:47;;;;;;;2.20;2.10;;;30.00;28.50;;;;;;4874992;29;20479;-81
2022/06/26 12:38:21;;;;;;;2.10;1.87;;;30.40;27.30;;;;;;4870560;29;20493;-80
2022/06/26 12:40:48;;;;;;;1.80;1.70;;;30.00;28.20;;;;;;4878972;29;20447;-82
2022/06/26 12:43:16;;;;;;;1.70;1.53;;;29.80;28.50;;;;;;4885603;29;20561;-85
2022/06/26 12:45:45;;;;;;;3.27;1.90;;;29.70;28.90;;;;;;4886360;29;20432;-81
2022/06/26 12:48:12;;;;;;;1.80;1.57;;;30.00;27.80;;;;;;4884106;29;20478;-81
2022/06/26 12:50:39;;;;;;;1.87;1.77;;;30.00;28.00;;;;;;4883477;29;20487;-79
2022/06/26 12:53:06;;;;;;;1.90;1.50;;;30.10;27.50;;;;;;4883957;29;20498;-81
2022/06/26 12:55:33;;;;;;;4.33;1.47;;;30.20;27.10;;;;;;4885251;29;20506;-81
2022/06/26 12:58:00;;;;;;;1.60;1.50;;;30.40;27.20;;;;;;4885813;29;20485;-83
2022/06/26 13:00:27;;;;;;;1.37;1.27;;;30.10;27.80;;;;;;4885750;29;20453;-81
2022/06/26 13:02:55;;;;;;;2.33;1.60;;;28.60;30.00;;;;;;4883788;29;20475;-80
2022/06/26 13:05:22;;;;;;;1.30;1.30;;;29.00;29.60;;;;;;4883052;29;20489;-81